createdAt,value
2019-04-21T00:02:45.435Z,62.50
2019-04-21T00:08:15.068Z,62.43
2019-04-21T00:13:14.869Z,62.35
2019-04-21T00:18:05.946Z,62.50
2019-04-21T00:23:23.357Z,62.77
2019-04-21T00:28:47.475Z,63.26
2019-04-21T00:33:28.180Z,63.92
2019-04-21T00:39:02.089Z,64.45
2019-04-21T00:43:49.039Z,64.40
2019-04-21T00:49:00.350Z,64.71
2019-04-21T00:54:16.733Z,64.74
2019-04-21T00:59:21.388Z,64.63
2019-04-21T01:04:29.259Z,64.96
2019-04-21T01:09:27.914Z,64.96
2019-04-21T01:14:45.525Z,65.45
2019-04-21T01:19:41.206Z,66.08
2019-04-21T01:24:34.562Z,66.23
2019-04-21T01:30:02.940Z,66.68
2019-04-21T01:35:02.477Z,67.09
2019-04-21T01:40:16.529Z,66.98
2019-04-21T01:45:18.882Z,66.53
2019-04-21T01:50:22.202Z,66.41
2019-04-21T01:55:36.769Z,66.30
2019-04-21T02:00:41.111Z,66.58
2019-04-21T02:05:59.699Z,67.24
2019-04-21T02:16:06.530Z,68.64
2019-04-21T02:21:01.991Z,68.74
2019-04-21T02:26:21.832Z,68.57
2019-04-21T02:31:39.531Z,68.68
2019-04-21T02:36:58.548Z,68.84
2019-04-21T02:41:51.079Z,68.71
2019-04-21T02:52:02.035Z,69.15
2019-04-21T02:57:09.234Z,69.30
2019-04-21T03:02:24.940Z,69.57
2019-04-21T03:07:52.107Z,70.01
2019-04-21T03:12:32.122Z,70.65
2019-04-21T03:22:57.877Z,71.46
2019-04-21T03:38:17.281Z,72.39
2019-04-21T03:43:12.228Z,73.02
2019-04-21T03:48:36.753Z,74.02
2019-04-21T03:53:24.978Z,74.80
2019-04-21T03:58:51.784Z,75.41
2019-04-21T04:03:51.793Z,75.98
2019-04-21T04:19:28.534Z,74.86
2019-04-21T04:24:57.903Z,74.47
2019-04-21T04:29:24.569Z,74.26
2019-04-21T04:45:05.683Z,72.97
2019-04-21T04:49:51.583Z,72.38
2019-04-21T04:55:03.515Z,71.10
2019-04-21T05:05:19.440Z,70.75
2019-04-21T05:10:29.302Z,72.68
2019-04-21T05:15:25.491Z,71.62
2019-04-21T05:20:49.244Z,73.06
2019-04-21T05:25:31.099Z,72.67
2019-04-21T05:30:48.977Z,70.50
2019-04-21T05:36:09.392Z,70.11
2019-04-21T05:40:59.091Z,69.77
2019-04-21T05:46:13.375Z,66.72
2019-04-21T05:51:11.771Z,67.19
2019-04-21T05:56:22.274Z,66.85
2019-04-21T06:01:32.825Z,66.18
2019-04-21T06:06:43.586Z,65.76
2019-04-21T06:11:36.269Z,64.35
2019-04-21T06:16:52.972Z,63.16
2019-04-21T06:21:50.835Z,62.70
2019-04-21T06:27:14.828Z,62.21
2019-04-21T06:33:15.311Z,62.17
2019-04-21T06:37:34.553Z,61.96
2019-04-21T06:42:23.939Z,61.13
2019-04-21T06:47:33.525Z,61.42
2019-04-21T06:52:46.697Z,60.85
2019-04-21T06:57:40.305Z,59.87
2019-04-21T07:03:08.415Z,59.76
2019-04-21T07:08:09.838Z,59.23
2019-04-21T07:12:51.858Z,59.34
2019-04-21T07:18:08.983Z,60.01
2019-04-21T07:23:13.723Z,59.34
2019-04-21T07:28:19.328Z,58.61
2019-04-21T07:33:50.666Z,57.40
2019-04-21T07:38:29.826Z,56.99
2019-04-21T07:43:32.939Z,53.05
2019-04-21T07:48:44.168Z,53.05
2019-04-21T07:54:13.502Z,51.31
2019-04-21T08:04:20.815Z,50.15
2019-04-21T08:09:12.535Z,50.15
2019-04-21T08:14:17.745Z,51.14
2019-04-21T08:19:25.243Z,51.81
2019-04-21T08:24:36.363Z,48.03
2019-04-21T08:29:39.213Z,49.60
2019-04-21T08:34:59.518Z,48.32
2019-04-21T08:39:56.522Z,47.28
2019-04-21T08:45:05.992Z,47.07
2019-04-21T08:50:02.130Z,48.16
2019-04-21T08:55:25.381Z,45.75
2019-04-21T09:00:46.872Z,46.35
2019-04-21T09:05:49.408Z,45.35
2019-04-21T09:10:56.104Z,44.79
2019-04-21T09:15:58.023Z,44.31
2019-04-21T09:21:05.508Z,41.44
2019-04-21T09:26:14.444Z,40.51
2019-04-21T09:31:04.455Z,41.28
2019-04-21T09:36:09.708Z,44.24
2019-04-21T09:41:16.222Z,43.55
2019-04-21T09:46:18.576Z,41.63
2019-04-21T09:51:23.664Z,40.27
2019-04-21T09:56:37.365Z,40.09
2019-04-21T10:01:52.955Z,41.24
2019-04-21T10:06:40.602Z,39.36
2019-04-21T10:11:45.943Z,38.98
2019-04-21T10:16:58.092Z,38.42
2019-04-21T10:22:02.723Z,39.52
2019-04-21T10:27:09.022Z,39.92
2019-04-21T10:32:13.758Z,38.26
2019-04-21T10:37:18.856Z,37.07
2019-04-21T10:42:23.721Z,37.12
2019-04-21T10:47:29.329Z,36.40
2019-04-21T10:52:53.274Z,35.74
2019-04-21T10:58:16.276Z,36.36
2019-04-21T11:03:31.142Z,35.07
2019-04-21T11:08:41.577Z,32.49
2019-04-21T11:13:42.502Z,31.42
2019-04-21T11:18:48.346Z,30.85
2019-04-21T11:23:54.164Z,29.32
2019-04-21T11:28:59.117Z,27.48
2019-04-21T11:34:05.033Z,27.38
2019-04-21T11:39:22.061Z,26.44
2019-04-21T11:44:18.407Z,27.66
2019-04-21T11:49:24.556Z,25.01
2019-04-21T11:54:30.985Z,23.47
2019-04-21T11:59:35.760Z,21.08
2019-04-21T12:04:41.357Z,19.34
2019-04-21T12:09:45.868Z,17.79
2019-04-21T12:14:50.351Z,18.03
2019-04-21T12:19:56.925Z,16.68
2019-04-21T12:25:02.970Z,17.66
2019-04-21T12:30:09.603Z,16.64
2019-04-21T12:35:15.831Z,17.86
2019-04-21T12:40:21.696Z,17.18
2019-04-21T12:45:26.448Z,17.84
2019-04-21T12:50:32.074Z,16.01
2019-04-21T12:55:41.093Z,16.41
2019-04-21T13:00:43.039Z,16.12
2019-04-21T13:05:49.570Z,15.54
2019-04-21T13:10:54.151Z,15.71
2019-04-21T13:15:58.608Z,15.21
2019-04-21T13:21:05.215Z,14.75
2019-04-21T13:26:10.031Z,13.98
2019-04-21T13:31:16.142Z,13.06
2019-04-21T13:36:21.332Z,12.01
2019-04-21T13:41:41.905Z,13.83
2019-04-21T13:46:32.520Z,14.67
2019-04-21T13:51:38.215Z,15.15
2019-04-21T13:56:44.742Z,16.97
2019-04-21T14:01:49.843Z,17.14
2019-04-21T14:06:54.388Z,18.28
2019-04-21T14:11:59.223Z,18.46
2019-04-21T14:17:05.893Z,17.96
2019-04-21T14:22:14.242Z,16.70
2019-04-21T14:27:18.738Z,17.70
2019-04-21T14:32:24.269Z,19.67
2019-04-21T14:37:28.879Z,21.86
2019-04-21T14:42:33.996Z,21.43
2019-04-21T14:47:58.965Z,21.43
2019-04-21T14:53:11.853Z,21.71
2019-04-21T14:58:17.202Z,22.12
2019-04-21T15:03:23.516Z,23.00
2019-04-21T15:08:28.988Z,21.91
2019-04-21T15:13:35.470Z,21.88
2019-04-21T15:18:41.015Z,22.61
2019-04-21T15:23:46.571Z,23.36
2019-04-21T15:28:51.111Z,23.27
2019-04-21T15:33:57.032Z,22.68
2019-04-21T15:39:01.775Z,22.68
2019-04-21T15:44:09.755Z,22.41
2019-04-21T15:49:15.408Z,20.22
2019-04-21T15:54:20.592Z,21.98
2019-04-21T15:59:30.573Z,23.28
2019-04-21T16:04:36.801Z,25.29
2019-04-21T16:09:41.828Z,23.68
2019-04-21T16:14:46.951Z,22.91
2019-04-21T16:19:52.188Z,21.74
2019-04-21T16:24:56.913Z,21.72
2019-04-21T16:30:01.975Z,23.69
2019-04-21T16:35:11.139Z,23.70
2019-04-21T16:40:17.172Z,23.44
2019-04-21T16:45:25.249Z,22.99
2019-04-21T16:50:29.898Z,22.62
2019-04-21T16:55:37.128Z,22.68
2019-04-21T17:00:53.943Z,24.05
2019-04-21T17:05:52.022Z,25.98
2019-04-21T17:11:06.389Z,27.08
2019-04-21T17:16:29.614Z,26.62
2019-04-21T17:21:10.689Z,27.32
2019-04-21T17:26:15.422Z,28.55
2019-04-21T17:31:20.270Z,30.04
2019-04-21T17:36:25.333Z,30.90
2019-04-21T17:41:39.329Z,32.70
2019-04-21T17:46:43.656Z,33.84
2019-04-21T17:51:55.134Z,34.69
2019-04-21T17:57:31.813Z,36.03
2019-04-21T18:02:28.246Z,36.67
2019-04-21T18:07:31.613Z,37.55
2019-04-21T18:12:33.565Z,38.00
2019-04-21T18:17:24.642Z,37.99
2019-04-21T18:22:37.470Z,38.35
2019-04-21T18:27:40.608Z,38.27
2019-04-21T18:32:46.023Z,37.83
2019-04-21T18:38:08.007Z,37.88
2019-04-21T18:43:43.701Z,37.94
2019-04-21T18:48:24.593Z,37.84
2019-04-21T18:53:36.512Z,38.59
2019-04-21T18:58:28.795Z,39.42
2019-04-21T19:03:39.896Z,40.33
2019-04-21T19:08:59.251Z,41.19
2019-04-21T19:14:30.367Z,41.69
2019-04-21T19:24:29.080Z,42.83
2019-04-21T19:29:31.938Z,43.06
2019-04-21T19:34:26.740Z,43.61
2019-04-21T19:39:43.130Z,43.99
2019-04-21T19:44:52.136Z,45.03
2019-04-21T19:50:01.897Z,45.60
2019-04-21T19:54:50.394Z,47.16
2019-04-21T19:59:58.531Z,47.88
2019-04-21T20:05:07.080Z,48.52
2019-04-21T20:10:26.912Z,48.22
2019-04-21T20:15:52.402Z,48.25
2019-04-21T20:20:21.718Z,48.30
2019-04-21T20:25:28.926Z,47.89
2019-04-21T20:30:52.903Z,48.88
2019-04-21T20:36:15.052Z,50.26
2019-04-21T20:40:56.960Z,52.71
2019-04-21T20:46:07.979Z,53.41
2019-04-21T20:51:18.415Z,52.53
2019-04-21T20:56:13.211Z,51.74
2019-04-21T21:06:32.937Z,54.63
2019-04-21T21:11:54.031Z,52.77
2019-04-21T21:16:53.104Z,51.80
2019-04-21T21:21:49.720Z,50.28
2019-04-21T21:26:58.102Z,54.28
2019-04-21T21:32:16.828Z,57.35
2019-04-21T21:37:21.809Z,58.70
2019-04-21T21:42:05.562Z,57.39
2019-04-21T21:47:23.056Z,59.64
2019-04-21T21:52:29.788Z,61.37
2019-04-21T21:57:20.662Z,63.53
2019-04-21T22:02:35.359Z,61.72
2019-04-21T22:07:33.709Z,61.34
2019-04-21T22:12:45.800Z,62.10
2019-04-21T22:18:05.964Z,62.48
2019-04-21T22:22:58.358Z,61.36
2019-04-21T22:27:57.760Z,59.86
2019-04-21T22:33:08.606Z,60.29
2019-04-21T22:38:25.675Z,61.37
2019-04-21T22:43:21.703Z,61.01
2019-04-21T22:48:23.679Z,61.12
2019-04-21T22:53:34.689Z,62.35
2019-04-21T22:58:38.745Z,62.89
2019-04-21T23:03:47.147Z,63.08
2019-04-21T23:08:47.636Z,63.88
2019-04-21T23:14:00.639Z,63.97
2019-04-21T23:19:16.911Z,64.01
2019-04-21T23:24:31.395Z,63.31
2019-04-21T23:29:41.225Z,63.54
2019-04-21T23:34:25.113Z,63.42
2019-04-21T23:39:28.959Z,63.08
2019-04-21T23:44:33.897Z,62.88
2019-04-21T23:49:47.095Z,62.53
2019-04-21T23:54:45.182Z,61.06
2019-04-21T23:59:55.396Z,61.06
